createdAt,value
2022-10-13T00:01:14.583Z,96284.52
2022-10-13T00:03:43.081Z,96287.63
2022-10-13T00:06:12.925Z,96286.44
2022-10-13T00:08:41.685Z,96284.70
2022-10-13T00:11:14.245Z,96286.84
2022-10-13T00:13:43.080Z,96287.81
2022-10-13T00:16:12.254Z,96289.13
2022-10-13T00:18:40.844Z,96287.69
2022-10-13T00:21:10.049Z,96290.85
2022-10-13T00:23:38.516Z,96283.48
2022-10-13T00:26:09.093Z,96285.10
2022-10-13T00:28:37.322Z,96281.91
2022-10-13T00:31:14.935Z,96285.17
2022-10-13T00:33:43.208Z,96282.14
2022-10-13T00:36:11.292Z,96280.17
2022-10-13T00:38:39.250Z,96274.73
2022-10-13T00:41:07.428Z,96273.71
2022-10-13T00:43:50.178Z,96273.81
2022-10-13T00:46:21.394Z,96279.80
2022-10-13T00:48:58.783Z,96278.84
2022-10-13T00:51:29.198Z,96273.31
2022-10-13T00:53:57.737Z,96273.39
2022-10-13T00:56:26.382Z,96280.05
2022-10-13T00:58:54.928Z,96281.15
2022-10-13T01:01:23.146Z,96280.69
2022-10-13T01:03:51.115Z,96280.91
2022-10-13T01:06:23.400Z,96282.79
2022-10-13T01:08:52.178Z,96280.71
2022-10-13T01:11:20.353Z,96279.02
2022-10-13T01:13:51.501Z,96271.70
2022-10-13T01:16:27.568Z,96262.94
2022-10-13T01:19:01.571Z,96250.61
2022-10-13T01:21:48.418Z,96231.86
2022-10-13T01:24:27.310Z,96230.05
2022-10-13T01:27:06.239Z,96238.30
2022-10-13T01:29:53.060Z,96255.03
2022-10-13T01:32:50.719Z,96255.36
2022-10-13T01:35:25.346Z,96261.45
2022-10-13T01:38:02.467Z,96262.08
2022-10-13T01:40:32.963Z,96261.70
2022-10-13T01:43:03.769Z,96261.77
2022-10-13T01:45:36.277Z,96260.61
2022-10-13T01:48:05.708Z,96262.08
2022-10-13T01:50:40.924Z,96256.29
2022-10-13T01:53:10.431Z,96254.80
2022-10-13T01:55:48.949Z,96255.04
2022-10-13T01:58:17.023Z,96257.67
2022-10-13T02:00:57.661Z,96254.20
2022-10-13T02:03:55.256Z,96249.77
2022-10-13T02:06:28.683Z,96247.97
2022-10-13T02:09:03.495Z,96249.77
2022-10-13T02:11:31.459Z,96244.20
2022-10-13T02:14:02.440Z,96246.05
2022-10-13T02:16:34.372Z,96246.36
2022-10-13T02:19:03.868Z,96247.14
2022-10-13T02:21:32.403Z,96243.77
2022-10-13T02:24:06.099Z,96245.62
2022-10-13T02:26:35.566Z,96240.11
2022-10-13T02:29:08.091Z,96239.92
2022-10-13T02:31:36.074Z,96243.08
2022-10-13T02:34:04.700Z,96244.73
2022-10-13T02:36:33.111Z,96243.05
2022-10-13T02:39:01.165Z,96241.13
2022-10-13T02:41:29.126Z,96240.15
2022-10-13T02:43:57.207Z,96243.31
2022-10-13T02:46:26.595Z,96241.49
2022-10-13T02:48:54.503Z,96243.34
2022-10-13T02:51:25.003Z,96242.86
2022-10-13T02:53:52.972Z,96242.63
2022-10-13T02:56:21.171Z,96239.27
2022-10-13T02:58:49.015Z,96240.02
2022-10-13T03:01:16.944Z,96245.70
2022-10-13T03:03:44.958Z,96248.92
2022-10-13T03:06:12.933Z,96246.23
2022-10-13T03:08:41.311Z,96242.55
2022-10-13T03:11:09.281Z,96246.12
2022-10-13T03:13:37.800Z,96242.38
2022-10-13T03:16:07.782Z,96245.58
2022-10-13T03:18:35.753Z,96241.09
2022-10-13T03:21:05.269Z,96241.05
2022-10-13T03:23:33.437Z,96241.87
2022-10-13T03:26:02.180Z,96241.63
2022-10-13T03:28:30.336Z,96241.81
2022-10-13T03:31:02.842Z,96244.21
2022-10-13T03:33:31.056Z,96244.64
2022-10-13T03:36:00.622Z,96243.30
2022-10-13T03:38:29.347Z,96242.05
2022-10-13T03:40:57.187Z,96242.77
2022-10-13T03:43:26.831Z,96246.90
2022-10-13T03:45:58.902Z,96245.55
2022-10-13T03:48:27.586Z,96248.49
2022-10-13T03:50:55.965Z,96247.02
2022-10-13T03:53:24.551Z,96249.64
2022-10-13T03:55:53.651Z,96246.05
2022-10-13T03:58:23.699Z,96247.44
2022-10-13T04:00:54.507Z,96249.42
2022-10-13T04:03:22.427Z,96250.29
2022-10-13T04:05:50.344Z,96250.88
2022-10-13T04:08:20.750Z,96251.23
2022-10-13T04:10:48.765Z,96248.11
2022-10-13T04:13:16.716Z,96246.76
2022-10-13T04:15:46.377Z,96245.44
2022-10-13T04:18:14.921Z,96245.74
2022-10-13T04:20:42.776Z,96246.02
2022-10-13T04:23:10.750Z,96242.20
2022-10-13T04:25:41.407Z,96241.05
2022-10-13T04:28:11.739Z,96237.27
2022-10-13T04:30:39.713Z,96233.79
2022-10-13T04:33:07.757Z,96234.48
2022-10-13T04:35:39.922Z,96233.57
2022-10-13T04:38:08.815Z,96235.05
2022-10-13T04:40:36.790Z,96237.13
2022-10-13T04:43:04.758Z,96238.67
2022-10-13T04:45:32.743Z,96240.48
2022-10-13T04:48:01.006Z,96241.70
2022-10-13T04:50:28.937Z,96244.17
2022-10-13T04:53:01.779Z,96240.45
2022-10-13T04:58:57.074Z,96236.55
2022-10-13T05:01:27.752Z,96238.95
2022-10-13T05:03:57.266Z,96232.36
2022-10-13T05:06:30.020Z,96231.39
2022-10-13T05:08:57.905Z,96233.58
2022-10-13T05:11:27.458Z,96234.17
2022-10-13T05:13:56.163Z,96239.48
2022-10-13T05:16:24.566Z,96243.51
2022-10-13T05:18:53.975Z,96244.99
2022-10-13T05:21:23.937Z,96244.27
2022-10-13T05:23:55.882Z,96242.45
2022-10-13T05:26:29.068Z,96243.60
2022-10-13T05:28:58.042Z,96248.02
2022-10-13T05:31:27.650Z,96250.78
2022-10-13T05:33:57.674Z,96251.30
2022-10-13T05:36:27.996Z,96258.14
2022-10-13T05:38:57.399Z,96255.65
2022-10-13T05:41:25.735Z,96259.04
2022-10-13T05:43:55.651Z,96255.72
2022-10-13T05:46:24.296Z,96260.59
2022-10-13T05:48:52.936Z,96259.48
2022-10-13T05:51:26.114Z,96260.88
2022-10-13T05:54:06.833Z,96259.93
2022-10-13T05:56:37.180Z,96265.22
2022-10-13T05:59:06.760Z,96269.02
2022-10-13T06:01:37.335Z,96268.80
2022-10-13T06:04:09.580Z,96269.34
2022-10-13T06:06:37.687Z,96269.86
2022-10-13T06:09:05.864Z,96268.61
2022-10-13T06:11:33.809Z,96271.36
2022-10-13T06:14:01.756Z,96271.04
2022-10-13T06:16:29.685Z,96269.51
2022-10-13T06:18:58.295Z,96273.69
2022-10-13T06:21:26.145Z,96276.99
2022-10-13T06:23:54.051Z,96282.30
2022-10-13T06:26:22.370Z,96285.15
2022-10-13T06:28:53.413Z,96283.38
2022-10-13T06:31:24.041Z,96287.26
2022-10-13T06:33:52.145Z,96283.36
2022-10-13T06:36:25.043Z,96283.92
2022-10-13T06:38:53.258Z,96279.33
2022-10-13T06:41:22.286Z,96277.11
2022-10-13T06:43:50.165Z,96275.73
2022-10-13T06:46:18.307Z,96275.36
2022-10-13T06:48:49.364Z,96276.48
2022-10-13T06:51:17.733Z,96280.20
2022-10-13T06:53:45.889Z,96278.79
2022-10-13T06:56:14.538Z,96277.42
2022-10-13T06:58:42.601Z,96282.61
2022-10-13T07:01:13.206Z,96273.53
2022-10-13T07:03:41.457Z,96276.30
2022-10-13T07:06:10.678Z,96272.50
2022-10-13T07:08:38.776Z,96271.31
2022-10-13T07:11:11.648Z,96274.38
2022-10-13T07:13:46.444Z,96275.17
2022-10-13T07:16:15.966Z,96272.40
2022-10-13T07:18:44.307Z,96273.05
2022-10-13T07:21:12.212Z,96275.40
2022-10-13T07:23:40.073Z,96270.48
2022-10-13T07:26:09.067Z,96261.92
2022-10-13T07:28:37.073Z,96264.07
2022-10-13T07:31:12.076Z,96270.72
2022-10-13T07:33:41.384Z,96269.66
2022-10-13T07:36:09.849Z,96270.55
2022-10-13T07:38:38.091Z,96269.41
2022-10-13T07:41:07.236Z,96270.35
2022-10-13T07:43:35.053Z,96267.07
2022-10-13T07:46:05.126Z,96265.33
2022-10-13T07:48:34.134Z,96266.21
2022-10-13T07:51:07.446Z,96260.34
2022-10-13T07:53:35.653Z,96266.02
2022-10-13T07:56:05.045Z,96266.34
2022-10-13T07:58:34.091Z,96264.97
2022-10-13T08:01:02.271Z,96265.83
2022-10-13T08:03:30.576Z,96263.77
2022-10-13T08:05:59.670Z,96262.42
2022-10-13T08:08:28.035Z,96259.51
2022-10-13T08:10:56.302Z,96258.13
2022-10-13T08:13:24.516Z,96258.08
2022-10-13T08:15:52.466Z,96256.31
2022-10-13T08:18:20.564Z,96255.91
2022-10-13T08:20:48.500Z,96257.80
2022-10-13T08:23:19.129Z,96261.65
2022-10-13T08:25:52.592Z,96259.80
2022-10-13T08:28:22.870Z,96259.84
2022-10-13T08:30:52.042Z,96258.03
2022-10-13T08:33:21.073Z,96255.73
2022-10-13T08:35:49.321Z,96252.82
2022-10-13T08:38:17.948Z,96252.13
2022-10-13T08:40:50.114Z,96251.02
2022-10-13T08:43:19.767Z,96252.64
2022-10-13T08:45:52.015Z,96259.25
2022-10-13T08:48:22.864Z,96257.59
2022-10-13T08:50:59.774Z,96257.48
2022-10-13T08:53:27.581Z,96262.67
2022-10-13T08:55:57.919Z,96260.77
2022-10-13T08:58:28.663Z,96259.25
2022-10-13T09:01:16.841Z,96259.60
2022-10-13T09:03:50.016Z,96257.02
2022-10-13T09:06:29.807Z,96258.29
2022-10-13T09:09:00.729Z,96259.84
2022-10-13T09:11:30.591Z,96258.67
2022-10-13T09:14:00.108Z,96259.98
2022-10-13T09:16:35.856Z,96256.20
2022-10-13T09:19:21.164Z,96257.34
2022-10-13T09:21:50.328Z,96259.52
2022-10-13T09:24:19.749Z,96259.13
2022-10-13T09:26:49.602Z,96258.19
2022-10-13T09:29:19.937Z,96261.99
2022-10-13T09:32:00.107Z,96259.98
2022-10-13T09:34:30.792Z,96259.73
2022-10-13T09:37:01.031Z,96259.75
2022-10-13T09:39:31.365Z,96259.64
2022-10-13T09:42:18.548Z,96256.66
2022-10-13T09:44:47.375Z,96256.11
2022-10-13T09:47:21.960Z,96252.54
2022-10-13T09:50:19.406Z,96246.09
2022-10-13T09:52:48.699Z,96246.55
2022-10-13T09:55:36.823Z,96245.52
2022-10-13T09:58:07.867Z,96246.13
2022-10-13T10:00:37.853Z,96248.17
2022-10-13T10:03:26.235Z,96246.94
2022-10-13T10:05:56.523Z,96248.35
2022-10-13T10:08:33.261Z,96245.09
2022-10-13T10:11:13.345Z,96235.39
2022-10-13T10:13:41.669Z,96235.14
2022-10-13T10:16:15.317Z,96239.21
2022-10-13T10:18:58.729Z,96238.75
2022-10-13T10:21:27.190Z,96236.34
2022-10-13T10:23:55.161Z,96235.88
2022-10-13T10:26:31.647Z,96234.55
2022-10-13T10:29:19.834Z,96233.36
2022-10-13T10:32:06.568Z,96229.75
2022-10-13T10:34:49.270Z,96226.41
2022-10-13T10:37:22.720Z,96222.23
2022-10-13T10:40:05.095Z,96219.39
2022-10-13T10:42:52.206Z,96214.33
2022-10-13T10:45:38.737Z,96213.52
2022-10-13T10:48:15.302Z,96212.08
2022-10-13T10:50:43.399Z,96210.35
2022-10-13T10:53:15.268Z,96209.88
2022-10-13T11:03:05.611Z,96195.27
2022-10-13T11:05:52.715Z,96190.07
2022-10-13T11:08:50.034Z,96184.13
2022-10-13T11:11:36.386Z,96184.08
2022-10-13T11:14:05.166Z,96185.50
2022-10-13T11:16:34.615Z,96178.30
2022-10-13T11:19:08.952Z,96178.58
2022-10-13T11:21:55.847Z,96178.85
2022-10-13T11:24:44.053Z,96174.09
2022-10-13T11:27:15.505Z,96170.56
2022-10-13T11:29:47.326Z,96167.27
2022-10-13T11:32:27.740Z,96164.86
2022-10-13T11:34:58.720Z,96165.33
2022-10-13T11:37:48.278Z,96159.38
2022-10-13T11:40:33.692Z,96154.84
2022-10-13T11:43:28.884Z,96158.42
2022-10-13T11:46:03.751Z,96153.73
2022-10-13T11:48:37.714Z,96151.08
2022-10-13T11:51:14.013Z,96142.48
2022-10-13T11:53:50.080Z,96142.08
2022-10-13T11:56:22.684Z,96143.08
2022-10-13T11:58:50.655Z,96143.98
2022-10-13T12:01:19.712Z,96144.41
2022-10-13T12:03:48.144Z,96143.69
2022-10-13T12:06:15.961Z,96142.08
2022-10-13T12:08:51.465Z,96141.48
2022-10-13T12:11:30.072Z,96140.23
2022-10-13T12:13:58.356Z,96137.86
2022-10-13T12:16:27.370Z,96135.71
2022-10-13T12:19:06.648Z,96137.95
2022-10-13T12:21:35.378Z,96138.61
2022-10-13T12:24:08.640Z,96135.27
2022-10-13T12:26:37.528Z,96130.63
2022-10-13T12:29:11.493Z,96131.63
2022-10-13T12:31:41.283Z,96130.48
2022-10-13T12:34:27.735Z,96131.40
2022-10-13T12:37:00.636Z,96129.27
2022-10-13T12:39:29.707Z,96126.20
2022-10-13T12:41:58.269Z,96120.66
2022-10-13T12:44:27.906Z,96120.41
2022-10-13T12:46:59.949Z,96120.86
2022-10-13T12:49:29.232Z,96119.21
2022-10-13T12:52:11.135Z,96117.50
2022-10-13T12:54:40.641Z,96113.16
2022-10-13T12:57:21.007Z,96108.58
2022-10-13T12:59:49.588Z,96102.20
2022-10-13T13:02:24.190Z,96106.02
2022-10-13T13:04:52.596Z,96109.48
2022-10-13T13:07:31.423Z,96110.17
2022-10-13T13:10:08.624Z,96110.57
2022-10-13T13:12:36.990Z,96115.58
2022-10-13T13:15:34.187Z,96112.20
2022-10-13T13:18:21.468Z,96107.95
2022-10-13T13:20:49.439Z,96107.85
2022-10-13T13:23:19.391Z,96110.67
2022-10-13T13:25:47.358Z,96108.90
2022-10-13T13:28:16.480Z,96108.03
2022-10-13T13:30:44.713Z,96105.88
2022-10-13T13:33:12.615Z,96100.76
2022-10-13T13:35:40.743Z,96101.66
2022-10-13T13:38:09.976Z,96098.80
2022-10-13T13:40:37.843Z,96091.14
2022-10-13T13:43:05.919Z,96091.92
2022-10-13T13:45:33.978Z,96088.78
2022-10-13T13:48:04.009Z,96090.73
2022-10-13T13:50:33.649Z,96093.92
2022-10-13T13:53:01.830Z,96093.16
2022-10-13T13:55:30.397Z,96094.29
2022-10-13T13:57:58.716Z,96092.41
2022-10-13T14:00:26.592Z,96091.11
2022-10-13T14:02:56.578Z,96091.07
2022-10-13T14:05:24.536Z,96092.89
2022-10-13T14:07:56.910Z,96094.85
2022-10-13T14:10:26.235Z,96096.27
2022-10-13T14:12:54.182Z,96094.43
2022-10-13T14:15:25.848Z,96095.78
2022-10-13T14:17:57.348Z,96094.72
2022-10-13T14:20:25.644Z,96093.78
2022-10-13T14:22:53.959Z,96090.13
2022-10-13T14:25:22.100Z,96091.48
2022-10-13T14:27:49.993Z,96090.66
2022-10-13T14:30:17.876Z,96094.99
2022-10-13T14:32:45.697Z,96092.48
2022-10-13T14:35:14.006Z,96096.57
2022-10-13T14:37:41.903Z,96095.72
2022-10-13T14:40:09.964Z,96096.27
2022-10-13T14:42:39.465Z,96094.66
2022-10-13T14:45:08.957Z,96093.77
2022-10-13T14:47:36.777Z,96092.17
2022-10-13T14:50:05.164Z,96090.66
2022-10-13T14:52:33.140Z,96092.55
2022-10-13T14:55:01.076Z,96088.30
2022-10-13T14:57:29.007Z,96093.11
2022-10-13T15:00:00.842Z,96088.95
2022-10-13T15:02:30.180Z,96090.95
2022-10-13T15:04:58.164Z,96089.76
2022-10-13T15:07:26.266Z,96094.37
2022-10-13T15:10:04.995Z,96088.64
2022-10-13T15:12:34.057Z,96091.91
2022-10-13T15:15:02.312Z,96091.24
2022-10-13T15:17:31.156Z,96093.14
2022-10-13T15:19:59.036Z,96095.63
2022-10-13T15:22:27.401Z,96097.33
2022-10-13T15:24:55.303Z,96095.27
2022-10-13T15:27:23.520Z,96098.33
2022-10-13T15:29:51.349Z,96098.98
2022-10-13T15:32:20.604Z,96101.52
2022-10-13T15:34:55.924Z,96096.60
2022-10-13T15:37:23.809Z,96093.71
2022-10-13T15:39:56.897Z,96092.95
2022-10-13T15:42:25.519Z,96101.41
2022-10-13T15:45:10.450Z,96102.90
2022-10-13T15:47:39.644Z,96102.95
2022-10-13T15:50:08.902Z,96106.45
2022-10-13T15:52:40.793Z,96105.46
2022-10-13T15:55:10.691Z,96104.69
2022-10-13T15:57:39.077Z,96102.34
2022-10-13T16:00:07.825Z,96101.23
2022-10-13T16:02:41.404Z,96100.11
2022-10-13T16:05:10.325Z,96101.40
2022-10-13T16:07:41.618Z,96100.42
2022-10-13T16:10:12.177Z,96104.98
2022-10-13T16:12:40.209Z,96109.44
2022-10-13T16:15:09.008Z,96105.16
2022-10-13T16:17:37.376Z,96108.29
2022-10-13T16:20:06.201Z,96106.88
2022-10-13T16:22:34.145Z,96112.21
2022-10-13T16:25:02.303Z,96109.91
2022-10-13T16:27:30.308Z,96109.64
2022-10-13T16:29:58.346Z,96109.55
2022-10-13T16:32:26.319Z,96106.77
2022-10-13T16:34:54.744Z,96110.61
2022-10-13T16:37:23.102Z,96109.92
2022-10-13T16:39:52.114Z,96111.89
2022-10-13T16:42:20.352Z,96116.43
2022-10-13T16:44:48.322Z,96112.86
2022-10-13T16:47:18.618Z,96109.44
2022-10-13T16:49:47.651Z,96110.27
2022-10-13T16:52:15.905Z,96108.70
2022-10-13T16:54:46.250Z,96109.08
2022-10-13T16:57:14.423Z,96107.35
2022-10-13T16:59:42.237Z,96106.80
2022-10-13T17:02:14.282Z,96107.64
2022-10-13T17:04:43.293Z,96110.36
2022-10-13T17:07:11.327Z,96111.78
2022-10-13T17:09:39.273Z,96114.92
2022-10-13T17:12:07.678Z,96112.34
2022-10-13T17:14:35.750Z,96111.30
2022-10-13T17:17:03.927Z,96109.41
2022-10-13T17:19:32.525Z,96109.09
2022-10-13T17:22:00.579Z,96113.05
2022-10-13T17:24:30.007Z,96107.83
2022-10-13T17:26:58.022Z,96112.51
2022-10-13T17:29:25.936Z,96111.73
2022-10-13T17:31:54.722Z,96117.70
2022-10-13T17:34:23.512Z,96115.57
2022-10-13T17:36:52.551Z,96111.61
2022-10-13T17:39:20.479Z,96112.92
2022-10-13T17:41:48.484Z,96113.77
2022-10-13T17:44:20.746Z,96112.11
2022-10-13T17:46:51.866Z,96112.25
2022-10-13T17:49:19.769Z,96112.58
2022-10-13T17:51:50.188Z,96107.88
2022-10-13T17:54:19.579Z,96104.45
2022-10-13T17:56:48.589Z,96097.36
2022-10-13T17:59:17.665Z,96097.61
2022-10-13T18:01:46.170Z,96093.59
2022-10-13T18:04:16.891Z,96098.19
2022-10-13T18:06:45.360Z,96098.30
2022-10-13T18:09:17.126Z,96096.02
2022-10-13T18:11:50.218Z,96094.63
2022-10-13T18:14:23.008Z,96091.50
2022-10-13T18:16:52.097Z,96092.33
2022-10-13T18:19:20.900Z,96093.89
2022-10-13T18:21:49.678Z,96093.55
2022-10-13T18:24:17.950Z,96091.45
2022-10-13T18:26:46.333Z,96095.66
2022-10-13T18:29:14.287Z,96097.43
2022-10-13T18:31:42.911Z,96097.14
2022-10-13T18:34:15.366Z,96097.45
2022-10-13T18:36:44.852Z,96097.66
2022-10-13T18:39:25.232Z,96099.23
2022-10-13T18:41:53.833Z,96098.02
2022-10-13T18:44:22.610Z,96091.08
2022-10-13T18:46:51.810Z,96097.98
2022-10-13T18:49:23.333Z,96096.86
2022-10-13T18:51:52.065Z,96097.23
2022-10-13T18:54:20.228Z,96095.89
2022-10-13T18:56:49.285Z,96096.10
2022-10-13T18:59:18.113Z,96093.48
2022-10-13T19:01:46.905Z,96094.14
2022-10-13T19:04:16.863Z,96097.49
2022-10-13T19:06:45.546Z,96098.65
2022-10-13T19:09:15.426Z,96096.56
2022-10-13T19:11:43.708Z,96093.27
2022-10-13T19:14:13.561Z,96093.65
2022-10-13T19:16:42.922Z,96094.41
2022-10-13T19:19:11.404Z,96092.48
2022-10-13T19:21:40.000Z,96094.73
2022-10-13T19:24:10.509Z,96097.80
2022-10-13T19:26:38.939Z,96095.95
2022-10-13T19:29:09.852Z,96094.27
2022-10-13T19:31:38.736Z,96099.11
2022-10-13T19:34:10.677Z,96097.27
2022-10-13T19:36:41.132Z,96095.45
2022-10-13T19:39:23.563Z,96095.98
2022-10-13T19:41:53.045Z,96092.91
2022-10-13T19:44:22.407Z,96093.12
2022-10-13T19:46:51.956Z,96091.45
2022-10-13T19:49:21.262Z,96090.31
2022-10-13T19:51:49.972Z,96090.63
2022-10-13T19:54:19.045Z,96087.29
2022-10-13T19:56:48.551Z,96087.84
2022-10-13T19:59:17.765Z,96089.52
2022-10-13T20:01:45.920Z,96084.84
2022-10-13T20:04:15.962Z,96084.20
2022-10-13T20:06:47.705Z,96079.63
2022-10-13T20:09:15.982Z,96078.45
2022-10-13T20:11:45.796Z,96080.03
2022-10-13T20:14:14.490Z,96078.75
2022-10-13T20:16:42.663Z,96078.91
2022-10-13T20:19:12.188Z,96078.20
2022-10-13T20:21:40.139Z,96080.77
2022-10-13T20:24:13.332Z,96076.50
2022-10-13T20:26:41.408Z,96077.51
2022-10-13T20:29:09.585Z,96073.85
2022-10-13T20:31:37.687Z,96071.73
2022-10-13T20:34:05.834Z,96072.42
2022-10-13T20:36:38.528Z,96070.85
2022-10-13T20:39:09.213Z,96067.81
2022-10-13T20:41:37.224Z,96067.33
2022-10-13T20:44:06.172Z,96066.61
2022-10-13T20:46:34.573Z,96062.90
2022-10-13T20:49:11.293Z,96067.72
2022-10-13T20:51:40.684Z,96063.16
2022-10-13T20:54:10.699Z,96065.10
2022-10-13T20:56:39.098Z,96065.03
2022-10-13T20:59:08.373Z,96066.02
2022-10-13T21:01:37.213Z,96067.90
2022-10-13T21:04:05.544Z,96066.39
2022-10-13T21:06:33.620Z,96069.55
2022-10-13T21:09:02.203Z,96067.54
2022-10-13T21:11:30.720Z,96069.96
2022-10-13T21:13:59.169Z,96071.94
2022-10-13T21:16:28.607Z,96077.67
2022-10-13T21:18:57.582Z,96073.82
2022-10-13T21:21:28.104Z,96074.73
2022-10-13T21:23:57.665Z,96074.41
2022-10-13T21:26:27.011Z,96068.41
2022-10-13T21:28:55.411Z,96070.47
2022-10-13T21:31:24.016Z,96068.85
2022-10-13T21:33:52.874Z,96070.47
2022-10-13T21:36:22.284Z,96075.66
2022-10-13T21:38:52.396Z,96075.75
2022-10-13T21:41:20.900Z,96077.02
2022-10-13T21:43:49.873Z,96076.70
2022-10-13T21:46:22.113Z,96078.09
2022-10-13T21:48:54.638Z,96075.80
2022-10-13T21:51:29.449Z,96070.30
2022-10-13T21:54:02.495Z,96070.48
2022-10-13T21:56:31.597Z,96072.73
2022-10-13T21:59:00.231Z,96075.02
2022-10-13T22:01:28.262Z,96072.46
2022-10-13T22:04:01.121Z,96071.57
2022-10-13T22:06:30.182Z,96067.32
2022-10-13T22:08:59.483Z,96066.16
2022-10-13T22:11:29.604Z,96063.58
2022-10-13T22:13:58.089Z,96061.79
2022-10-13T22:16:29.202Z,96061.85
2022-10-13T22:18:57.762Z,96059.66
2022-10-13T22:21:27.219Z,96057.05
2022-10-13T22:23:59.029Z,96057.38
2022-10-13T22:26:27.807Z,96057.14
2022-10-13T22:28:56.914Z,96061.84
2022-10-13T22:31:25.285Z,96060.61
2022-10-13T22:33:53.878Z,96063.30
2022-10-13T22:36:23.056Z,96064.24
2022-10-13T22:38:52.032Z,96063.00
2022-10-13T22:41:20.829Z,96062.40
2022-10-13T22:43:52.888Z,96060.81
2022-10-13T22:46:22.027Z,96059.09
2022-10-13T22:48:50.366Z,96058.84
2022-10-13T22:51:20.183Z,96064.02
2022-10-13T22:53:48.766Z,96059.14
2022-10-13T22:56:18.943Z,96062.02
2022-10-13T22:58:50.856Z,96059.60
2022-10-13T23:01:19.181Z,96064.27
2022-10-13T23:03:48.604Z,96068.10
2022-10-13T23:06:18.665Z,96067.00
2022-10-13T23:08:46.972Z,96066.10
2022-10-13T23:11:15.417Z,96064.50
2022-10-13T23:13:43.492Z,96062.82
2022-10-13T23:16:14.326Z,96063.45
2022-10-13T23:18:43.426Z,96062.65
2022-10-13T23:21:26.219Z,96064.02
2022-10-13T23:24:01.960Z,96062.83
2022-10-13T23:26:31.095Z,96062.02
2022-10-13T23:28:59.166Z,96058.80
2022-10-13T23:31:28.180Z,96061.41
2022-10-13T23:33:56.567Z,96061.23
2022-10-13T23:36:26.170Z,96060.34
2022-10-13T23:38:55.866Z,96056.81
2022-10-13T23:41:23.958Z,96057.70
2022-10-13T23:43:51.808Z,96056.48
2022-10-13T23:46:20.393Z,96060.89
2022-10-13T23:48:48.384Z,96055.82
2022-10-13T23:51:18.996Z,96058.98
2022-10-13T23:53:47.310Z,96057.87
2022-10-13T23:56:16.269Z,96057.81
2022-10-13T23:58:44.856Z,96054.91
